Time;durP1;ratioP1;P1;durP2;ratioP2;P2;SDS_P1;SDS_P2;PMS_P1;PMS_P2;Temp;Humidity;BMP_temperature;BMP_pressure;BME280_temperature;BME280_humidity;BME280_pressure;Samples;Min_cycle;Max_cycle;Signal;HPM_P1;HPM_P2
2021/08/30 00:01:47;;;;;;;;;4.25;3.25;;;;;16.87;71.21;101712.22;4911991;28;45577;-61
2021/08/30 00:04:12;;;;;;;;;5.00;3.75;;;;;16.86;71.00;101709.72;4912455;28;45887;-61
2021/08/30 00:06:40;;;;;;;;;5.00;4.25;;;;;16.88;71.27;101711.22;4894537;28;45596;-61
2021/08/30 00:09:06;;;;;;;;;5.50;4.25;;;;;16.85;71.03;101711.56;4904758;28;47143;-61
2021/08/30 00:11:31;;;;;;;;;5.00;4.00;;;;;16.86;71.54;101707.03;4913201;28;45543;-61
2021/08/30 00:13:56;;;;;;;;;5.00;3.50;;;;;16.85;70.80;101714.22;4910692;28;45495;-61
2021/08/30 00:16:22;;;;;;;;;5.75;4.00;;;;;16.84;71.55;101707.22;4920819;28;46027;-61
2021/08/30 00:18:47;;;;;;;;;5.00;4.75;;;;;16.84;71.28;101709.91;4893850;28;46101;-61
2021/08/30 00:21:13;;;;;;;;;4.00;4.00;;;;;16.85;70.98;101708.88;4906486;28;45716;-61
2021/08/30 00:23:38;;;;;;;;;4.50;3.25;;;;;16.83;71.33;101700.19;4912542;28;45866;-61
2021/08/30 00:26:04;;;;;;;;;6.25;5.00;;;;;16.83;71.39;101700.19;4909977;28;45575;-61
2021/08/30 00:28:31;;;;;;;;;7.00;3.75;;;;;16.83;71.37;101700.19;4911007;28;47144;-61
2021/08/30 00:30:57;;;;;;;;;4.25;3.00;;;;;16.82;71.06;101695.88;4905361;28;46125;-61
2021/08/30 00:33:22;;;;;;;;;6.00;3.25;;;;;16.81;70.94;101694.19;4914043;28;45740;-62
2021/08/30 00:35:48;;;;;;;;;6.50;3.75;;;;;16.80;70.73;101695.19;4983332;28;45496;-61
2021/08/30 00:38:13;;;;;;;;;3.25;3.25;;;;;16.79;71.09;101682.88;4909984;28;45517;-61
2021/08/30 00:40:39;;;;;;;;;5.00;4.50;;;;;16.79;71.16;101690.88;4911245;28;45579;-61
2021/08/30 00:43:05;;;;;;;;;6.00;5.00;;;;;16.80;71.68;101686.38;4909704;28;45602;-62
2021/08/30 00:45:31;;;;;;;;;5.00;5.00;;;;;16.81;71.08;101685.34;4899244;28;45516;-61
2021/08/30 00:47:57;;;;;;;;;7.00;5.75;;;;;16.78;71.28;101675.84;4906202;28;45664;-61
2021/08/30 00:50:22;;;;;;;;;9.75;7.00;;;;;16.81;70.97;101690.69;4912783;28;46133;-61
2021/08/30 00:52:48;;;;;;;;;9.25;6.00;;;;;16.79;71.01;101680.19;4909924;28;45585;-61
2021/08/30 00:55:14;;;;;;;;;8.00;8.00;;;;;16.79;70.86;101680.19;4911246;28;45414;-61
2021/08/30 00:57:40;;;;;;;;;6.25;5.50;;;;;16.80;70.84;101684.53;4901459;28;46063;-61
2021/08/30 01:00:07;;;;;;;;;7.50;6.00;;;;;16.81;71.02;101686.19;4903302;28;45459;-61
2021/08/30 01:02:36;;;;;;;;;7.50;5.75;;;;;16.82;70.79;101684.38;4908888;28;45570;-61
2021/08/30 01:05:03;;;;;;;;;11.75;8.25;;;;;16.83;71.13;101680.69;4911498;28;45681;-61
2021/08/30 01:07:52;;;;;;;;;8.75;8.50;;;;;16.82;71.08;101677.19;4908971;28;46301;-61
2021/08/30 01:10:33;;;;;;;;;9.25;7.25;;;;;16.84;71.10;101680.53;4908586;28;45572;-61
2021/08/30 01:13:01;;;;;;;;;8.75;7.50;;;;;16.82;70.98;101679.84;4906639;28;45492;-61
2021/08/30 01:15:39;;;;;;;;;7.25;7.25;;;;;16.84;70.81;101685.00;4899460;28;46054;-61
2021/08/30 01:18:14;;;;;;;;;9.50;7.25;;;;;16.85;71.22;101689.38;4903587;28;45772;-61
2021/08/30 01:20:42;;;;;;;;;11.00;8.50;;;;;16.83;71.49;101683.34;4911504;28;45620;-61
2021/08/30 01:23:09;;;;;;;;;8.00;8.00;;;;;16.82;71.15;101685.19;4902098;28;45490;-61
2021/08/30 01:25:35;;;;;;;;;9.50;8.50;;;;;16.83;71.54;101681.50;4908889;28;46093;-61
2021/08/30 01:28:01;;;;;;;;;10.50;8.50;;;;;16.82;71.84;101674.53;4905674;28;47169;-61
2021/08/30 01:30:29;;;;;;;;;8.00;7.00;;;;;16.82;71.51;101674.53;4901868;28;45601;-61
2021/08/30 01:33:00;;;;;;;;;13.25;10.25;;;;;16.84;71.57;101677.84;4917952;28;45788;-62
2021/08/30 01:35:27;;;;;;;;;11.00;10.75;;;;;16.84;71.99;101677.00;4941759;28;45535;-61
2021/08/30 01:37:57;;;;;;;;;10.00;9.00;;;;;16.84;72.01;101680.53;4909559;28;47127;-61
2021/08/30 01:40:24;;;;;;;;;13.00;11.00;;;;;16.83;72.17;101672.69;4913269;28;45763;-61
2021/08/30 01:42:54;;;;;;;;;15.25;11.00;;;;;16.83;72.79;101680.69;4974986;28;45989;-61
2021/08/30 01:45:23;;;;;;;;;14.00;12.75;;;;;16.82;72.53;101676.34;4894185;28;45866;-61
2021/08/30 01:47:51;;;;;;;;;16.25;12.75;;;;;16.79;72.73;101668.66;4923173;28;48435;-61
2021/08/30 01:50:20;;;;;;;;;15.50;13.00;;;;;16.79;72.73;101669.53;4907909;28;45997;-61
2021/08/30 01:52:46;;;;;;;;;11.00;11.00;;;;;16.79;72.90;101666.00;4909101;28;45684;-61
2021/08/30 02:03:19;;;;;;;;;13.50;12.25;;;;;16.83;73.32;101662.00;4905127;28;45607;-61
2021/08/30 02:05:50;;;;;;;;;15.25;12.00;;;;;16.84;73.21;101658.31;4911979;28;45657;-61
2021/08/30 02:08:17;;;;;;;;;11.75;10.75;;;;;16.86;73.23;101664.31;4911310;28;54056;-61
2021/08/30 02:10:47;;;;;;;;;13.50;11.00;;;;;16.86;73.66;101670.50;4909046;28;46223;-62
2021/08/30 02:13:15;;;;;;;;;14.25;12.00;;;;;16.86;73.85;101662.47;4907672;28;45983;-61
2021/08/30 02:15:41;;;;;;;;;14.00;10.75;;;;;16.87;74.07;101669.50;4898297;28;45777;-61
2021/08/30 02:18:39;;;;;;;;;11.50;9.00;;;;;16.84;74.16;101659.19;4904047;28;46642;-61
2021/08/30 02:21:35;;;;;;;;;12.00;8.75;;;;;16.85;73.55;101660.81;5012565;28;46037;-61
2021/08/30 02:24:20;;;;;;;;;13.25;8.25;;;;;16.85;74.19;101658.16;5012377;28;46740;-61
2021/08/30 02:26:47;;;;;;;;;14.00;10.00;;;;;16.83;74.54;101662.00;5013262;28;46527;-61
2021/08/30 02:29:18;;;;;;;;;10.75;9.25;;;;;16.83;74.13;101662.81;5014341;28;46365;-62
2021/08/30 02:31:48;;;;;;;;;12.25;10.50;;;;;16.82;74.55;101663.84;5015886;28;45997;-62
2021/08/30 02:34:16;;;;;;;;;11.75;10.50;;;;;16.81;74.58;101654.16;5015323;28;45860;-62
2021/08/30 02:36:42;;;;;;;;;12.75;10.00;;;;;16.81;74.80;101664.81;5013792;28;45587;-61
2021/08/30 02:39:09;;;;;;;;;15.00;11.50;;;;;16.82;75.22;101666.50;5012570;28;47623;-62
2021/08/30 02:41:36;;;;;;;;;10.75;10.25;;;;;16.81;75.10;101664.00;5015036;28;45603;-61
2021/08/30 02:44:03;;;;;;;;;13.50;10.25;;;;;16.82;74.86;101665.69;5016720;28;45557;-61
2021/08/30 02:46:30;;;;;;;;;13.75;9.50;;;;;16.81;74.97;101656.81;5014210;28;45745;-61
2021/08/30 02:48:56;;;;;;;;;9.25;9.25;;;;;16.81;75.08;101666.66;5012274;28;60228;-61
2021/08/30 02:51:22;;;;;;;;;13.75;10.50;;;;;16.82;75.32;101658.50;5012512;28;45757;-61
2021/08/30 02:53:49;;;;;;;;;10.25;8.75;;;;;16.83;75.66;101662.81;5015485;28;49263;-61
2021/08/30 02:56:16;;;;;;;;;10.50;10.00;;;;;16.83;75.19;101662.81;5015166;28;46311;-61
2021/08/30 02:58:42;;;;;;;;;12.75;11.25;;;;;16.83;75.46;101660.16;4931399;28;46024;-62
2021/08/30 03:01:08;;;;;;;;;11.75;9.25;;;;;16.86;75.15;101662.47;4910261;28;46327;-62
2021/08/30 03:03:35;;;;;;;;;12.50;9.75;;;;;16.87;75.50;101666.84;4900647;28;45521;-62
2021/08/30 03:06:01;;;;;;;;;12.25;12.00;;;;;16.90;75.46;101663.81;4906389;28;45699;-61
2021/08/30 03:08:26;;;;;;;;;13.75;11.50;;;;;16.92;75.28;101669.00;4912957;28;46290;-62
2021/08/30 03:10:54;;;;;;;;;13.00;12.50;;;;;16.92;75.40;101664.50;4910809;28;45826;-62
2021/08/30 03:13:19;;;;;;;;;12.25;10.75;;;;;16.92;75.35;101656.47;4912221;28;45567;-61
2021/08/30 03:15:48;;;;;;;;;12.25;9.75;;;;;16.94;75.27;101654.47;4900577;28;45941;-62
2021/08/30 03:18:15;;;;;;;;;12.00;10.25;;;;;16.94;75.60;101659.81;4905073;28;46444;-62
2021/08/30 03:20:42;;;;;;;;;11.00;10.75;;;;;16.93;75.58;101660.81;4913400;28;45577;-61
2021/08/30 03:23:08;;;;;;;;;11.75;10.00;;;;;16.94;75.58;101646.47;4911228;28;45902;-61
2021/08/30 03:25:35;;;;;;;;;14.00;12.00;;;;;16.95;75.68;101650.81;4910485;28;45622;-61
2021/08/30 03:28:06;;;;;;;;;13.75;12.25;;;;;16.97;75.37;101653.31;4905547;28;47102;-62
2021/08/30 03:30:33;;;;;;;;;16.00;13.75;;;;;16.97;75.75;101646.13;4900550;28;45481;-61
2021/08/30 03:33:00;;;;;;;;;12.00;10.00;;;;;16.99;75.51;101648.66;4918942;28;45535;-61
2021/08/30 03:35:25;;;;;;;;;14.50;10.75;;;;;17.01;75.69;101643.13;4911757;28;45590;-62
2021/08/30 03:37:53;;;;;;;;;14.25;11.00;;;;;17.02;75.52;101642.13;4912006;28;46245;-61
2021/08/30 03:40:20;;;;;;;;;13.00;11.00;;;;;17.02;75.63;101644.78;4912162;28;45756;-61
2021/08/30 03:42:48;;;;;;;;;11.75;8.75;;;;;17.03;75.63;101641.13;4901703;28;46809;-62
2021/08/30 03:45:14;;;;;;;;;11.50;11.25;;;;;17.02;75.24;101645.63;4897923;28;45773;-62
2021/08/30 03:47:40;;;;;;;;;10.00;10.00;;;;;17.03;75.82;101638.44;4912852;28;45379;-62
2021/08/30 03:50:06;;;;;;;;;13.00;11.25;;;;;17.03;75.56;101639.25;4911651;28;45899;-62
2021/08/30 03:52:34;;;;;;;;;13.75;12.25;;;;;17.04;75.70;101648.13;4911608;28;45404;-63
2021/08/30 03:55:00;;;;;;;;;13.75;12.75;;;;;17.05;75.77;101645.28;4904401;28;45948;-63
2021/08/30 03:57:26;;;;;;;;;13.25;9.75;;;;;17.06;76.00;101646.97;4906038;28;46104;-62
2021/08/30 03:59:57;;;;;;;;;14.00;13.00;;;;;17.07;75.30;101647.78;4896550;28;45495;-64
2021/08/30 04:02:26;;;;;;;;;13.25;12.00;;;;;17.09;75.70;101648.47;4913298;28;46112;-64
2021/08/30 04:04:52;;;;;;;;;16.75;13.50;;;;;17.09;76.16;101648.47;4908371;28;46115;-63
2021/08/30 04:07:19;;;;;;;;;12.75;12.75;;;;;17.10;76.01;101642.09;4912744;28;46384;-64
2021/08/30 04:09:44;;;;;;;;;14.75;14.00;;;;;17.09;75.59;101635.94;4899713;28;45854;-63
2021/08/30 04:12:11;;;;;;;;;18.75;13.00;;;;;17.11;76.12;101639.28;4904170;28;45586;-63
2021/08/30 04:14:37;;;;;;;;;11.50;11.25;;;;;17.13;75.76;101644.44;4907722;28;45447;-63
2021/08/30 04:17:03;;;;;;;;;14.50;13.00;;;;;17.16;76.01;101644.06;4895831;28;57178;-65
2021/08/30 04:19:28;;;;;;;;;11.25;11.25;;;;;17.16;75.92;101644.06;4893980;28;45660;-65
2021/08/30 04:21:53;;;;;;;;;17.00;13.75;;;;;17.17;76.01;101635.91;4895799;28;45411;-64
2021/08/30 04:24:19;;;;;;;;;14.00;13.00;;;;;17.17;76.02;101643.09;4895695;28;45728;-64
2021/08/30 04:26:44;;;;;;;;;15.00;13.00;;;;;17.18;76.21;101636.72;4898888;28;45675;-64
2021/08/30 04:29:10;;;;;;;;;16.50;13.00;;;;;17.20;76.16;101648.09;4897004;28;46035;-64
2021/08/30 04:31:35;;;;;;;;;17.50;14.25;;;;;17.18;76.22;101645.59;4899120;28;45844;-64
2021/08/30 04:34:01;;;;;;;;;20.00;16.00;;;;;17.19;76.35;101649.94;4907686;28;45888;-64
2021/08/30 04:36:26;;;;;;;;;16.75;16.00;;;;;17.20;76.51;101645.41;4892307;28;47175;-64
2021/08/30 04:38:52;;;;;;;;;21.50;14.75;;;;;17.21;76.07;101644.44;4893710;28;45458;-63
2021/08/30 04:41:18;;;;;;;;;17.50;16.50;;;;;17.23;76.25;101647.75;4898978;28;45497;-64
2021/08/30 04:43:44;;;;;;;;;18.00;16.00;;;;;17.24;76.49;101648.59;4895844;28;45501;-64
2021/08/30 04:46:09;;;;;;;;;18.00;18.00;;;;;17.23;76.78;101649.56;4896190;28;46478;-64
2021/08/30 04:48:35;;;;;;;;;19.25;18.00;;;;;17.23;77.06;101649.56;4911839;28;45429;-64
2021/08/30 04:51:00;;;;;;;;;18.00;17.25;;;;;17.20;77.00;101656.94;4895095;28;45815;-64
2021/08/30 04:53:26;;;;;;;;;16.75;16.00;;;;;17.19;77.88;101651.78;4898731;28;45507;-64
2021/08/30 04:55:51;;;;;;;;;16.00;15.25;;;;;17.17;77.90;101659.94;4894604;28;46974;-64
2021/08/30 04:58:16;;;;;;;;;21.75;17.00;;;;;17.16;78.08;101655.63;4896679;28;45684;-64
2021/08/30 05:00:42;;;;;;;;;19.75;16.25;;;;;17.17;77.87;101659.13;4897608;28;46639;-64
2021/08/30 05:03:07;;;;;;;;;20.00;18.25;;;;;17.15;78.54;101663.78;4895671;28;57819;-64
2021/08/30 05:05:32;;;;;;;;;17.50;16.00;;;;;17.13;78.33;101660.44;4899311;28;46435;-64
2021/08/30 05:07:58;;;;;;;;;19.75;18.00;;;;;17.11;78.41;101668.66;4897850;28;45573;-64
2021/08/30 05:10:23;;;;;;;;;18.50;17.00;;;;;17.12;78.75;101662.28;4909314;28;45906;-64
2021/08/30 05:12:48;;;;;;;;;19.25;17.50;;;;;17.13;78.51;101669.28;4901147;28;45530;-64
2021/08/30 05:15:14;;;;;;;;;18.75;16.50;;;;;17.14;78.82;101667.47;4904988;28;46122;-64
2021/08/30 05:17:39;;;;;;;;;20.75;18.50;;;;;17.13;78.86;101671.97;4912363;28;45479;-64
2021/08/30 05:20:05;;;;;;;;;20.00;18.00;;;;;17.13;79.09;101665.78;4903082;28;46042;-64
2021/08/30 05:22:30;;;;;;;;;22.50;19.00;;;;;17.12;78.88;101664.13;4900856;28;45571;-63
2021/08/30 05:24:56;;;;;;;;;21.75;20.50;;;;;17.11;78.80;101665.97;4895689;28;45526;-63
2021/08/30 05:27:21;;;;;;;;;22.50;18.25;;;;;17.13;79.31;101663.13;4895876;28;58906;-64
2021/08/30 05:29:47;;;;;;;;;18.75;18.00;;;;;17.14;79.08;101660.28;4902764;28;45565;-63
2021/08/30 05:32:12;;;;;;;;;18.25;16.50;;;;;17.17;79.54;101659.13;4899553;28;46030;-63
2021/08/30 05:34:37;;;;;;;;;28.00;20.75;;;;;17.18;78.59;101663.44;4891745;28;46642;-63
2021/08/30 05:37:03;;;;;;;;;24.50;22.75;;;;;17.20;79.07;101664.13;4895257;28;45632;-63
2021/08/30 05:39:28;;;;;;;;;22.25;19.75;;;;;17.20;79.08;101658.78;4894597;28;46092;-63
2021/08/30 05:41:53;;;;;;;;;20.50;19.50;;;;;17.22;79.03;101667.44;4896398;28;45530;-61
2021/08/30 05:44:19;;;;;;;;;20.50;20.25;;;;;17.24;79.08;101665.44;4895334;28;45805;-63
2021/08/30 05:46:44;;;;;;;;;23.50;21.50;;;;;17.27;79.18;101669.63;4894047;28;57163;-63
2021/08/30 05:49:10;;;;;;;;;27.00;25.75;;;;;17.30;79.40;101669.28;4897178;28;45896;-68
2021/08/30 05:51:35;;;;;;;;;24.00;21.00;;;;;17.31;79.22;101668.25;4897996;28;45505;-67
2021/08/30 05:54:00;;;;;;;;;26.75;22.75;;;;;17.34;78.81;101665.25;4894175;28;46291;-65
2021/08/30 05:56:27;;;;;;;;;24.00;19.75;;;;;17.36;78.84;101676.63;4898227;28;45553;-70
2021/08/30 05:58:53;;;;;;;;;22.75;22.00;;;;;17.38;78.49;101678.09;4894977;28;47171;-71
2021/08/30 06:01:18;;;;;;;;;24.50;22.50;;;;;17.40;78.57;101681.41;4897363;28;45456;-68
2021/08/30 06:03:44;;;;;;;;;24.75;23.00;;;;;17.43;78.51;101682.91;4892757;28;45863;-68
2021/08/30 06:06:09;;;;;;;;;26.75;23.00;;;;;17.45;78.72;101683.59;4893781;28;45603;-69
2021/08/30 06:08:35;;;;;;;;;32.75;26.00;;;;;17.47;78.15;101676.22;4899170;28;45928;-67
2021/08/30 06:11:00;;;;;;;;;25.75;23.00;;;;;17.49;78.55;101684.09;4892924;28;45692;-67
2021/08/30 06:13:26;;;;;;;;;26.75;26.75;;;;;17.51;78.32;101682.09;4895126;28;46614;-67
2021/08/30 06:15:52;;;;;;;;;27.50;26.00;;;;;17.51;78.09;101682.91;4895160;28;45842;-64
2021/08/30 06:18:18;;;;;;;;;30.25;23.25;;;;;17.56;78.24;101679.72;4894055;28;45496;-63
2021/08/30 06:20:43;;;;;;;;;30.75;27.75;;;;;17.58;78.07;101691.91;4898009;28;45470;-63
2021/08/30 06:23:09;;;;;;;;;31.00;26.00;;;;;17.58;77.84;101686.56;4894688;28;45994;-63
2021/08/30 06:25:34;;;;;;;;;26.50;23.50;;;;;17.59;77.89;101698.09;4895065;28;45846;-63
2021/08/30 06:28:00;;;;;;;;;31.50;28.00;;;;;17.58;77.89;101696.41;4894111;28;45954;-63
2021/08/30 06:30:25;;;;;;;;;30.75;28.00;;;;;17.59;77.72;101700.75;4894513;28;45407;-63
2021/08/30 06:32:51;;;;;;;;;35.75;29.00;;;;;17.60;78.19;101702.41;4897547;28;46232;-63
2021/08/30 06:35:17;;;;;;;;;34.50;28.00;;;;;17.62;77.50;101697.72;4895473;28;45428;-63
2021/08/30 06:37:42;;;;;;;;;31.25;25.50;;;;;17.64;77.58;101706.41;4900317;28;46086;-63
2021/08/30 06:40:09;;;;;;;;;32.00;27.25;;;;;17.66;77.54;101701.75;4900062;28;45464;-63
2021/08/30 06:42:35;;;;;;;;;30.00;27.00;;;;;17.70;77.68;101707.56;4895370;28;46504;-64
2021/08/30 06:45:03;;;;;;;;;29.75;26.75;;;;;17.73;76.99;101697.38;4897188;28;45528;-63
2021/08/30 06:47:28;;;;;;;;;24.25;24.25;;;;;17.77;77.06;101695.16;4901394;28;45890;-63
2021/08/30 06:49:54;;;;;;;;;31.50;27.75;;;;;17.80;76.81;101700.19;4894564;28;45678;-63
2021/08/30 06:52:19;;;;;;;;;30.75;24.25;;;;;17.82;76.69;101699.00;4898432;28;45615;-62
2021/08/30 06:54:44;;;;;;;;;30.25;26.75;;;;;17.87;77.16;101703.00;4903687;28;45691;-63
2021/08/30 06:57:09;;;;;;;;;27.75;26.00;;;;;17.88;76.86;101694.84;4902129;28;45840;-62
2021/08/30 06:59:35;;;;;;;;;26.00;24.00;;;;;17.91;77.14;101699.81;4895594;28;45596;-64
2021/08/30 07:02:00;;;;;;;;;26.50;24.50;;;;;17.91;76.68;101699.81;4910120;28;46265;-62
2021/08/30 07:04:26;;;;;;;;;28.00;24.25;;;;;17.92;76.37;101697.97;4917589;28;45925;-63
2021/08/30 07:06:51;;;;;;;;;33.75;26.50;;;;;17.95;76.06;101701.16;4904843;28;45601;-64
2021/08/30 07:09:16;;;;;;;;;32.50;28.50;;;;;17.98;76.05;101706.16;4904035;28;45415;-63
2021/08/30 07:11:42;;;;;;;;;29.25;25.75;;;;;18.04;75.63;101707.28;4899213;28;46264;-65
2021/08/30 07:14:08;;;;;;;;;28.25;27.00;;;;;18.07;75.75;101709.59;4903970;28;46369;-62
2021/08/30 07:16:33;;;;;;;;;28.75;26.00;;;;;18.14;75.52;101710.56;4893710;28;45785;-62
2021/08/30 07:18:59;;;;;;;;;32.00;27.25;;;;;18.23;74.99;101708.69;4902044;28;45833;-62
2021/08/30 07:21:25;;;;;;;;;26.75;23.50;;;;;18.35;74.31;101711.81;4904683;28;47055;-62
2021/08/30 07:23:51;;;;;;;;;29.75;24.50;;;;;18.49;74.46;101727.09;4898641;28;46000;-63
2021/08/30 07:26:16;;;;;;;;;25.75;23.00;;;;;18.53;73.43;101715.03;4890662;28;45740;-62
2021/08/30 07:28:41;;;;;;;;;26.50;25.25;;;;;18.59;73.09;101725.00;4894686;28;45718;-62
2021/08/30 07:31:07;;;;;;;;;28.00;24.25;;;;;18.60;73.05;101718.66;4904424;28;46216;-62
2021/08/30 07:33:32;;;;;;;;;30.25;26.75;;;;;18.63;72.90;101725.50;4901247;28;52704;-63
2021/08/30 07:35:58;;;;;;;;;24.75;22.25;;;;;18.62;72.78;101729.16;4899953;28;45562;-62
2021/08/30 07:38:24;;;;;;;;;27.50;24.75;;;;;18.63;72.87;101730.84;4913531;28;45719;-63
2021/08/30 07:40:49;;;;;;;;;25.25;23.00;;;;;18.62;72.86;101731.84;4906056;28;47220;-62
2021/08/30 07:43:14;;;;;;;;;23.75;22.50;;;;;18.65;72.25;101734.19;4891026;28;45470;-62
2021/08/30 07:45:40;;;;;;;;;23.50;22.25;;;;;18.69;72.13;101743.50;4897470;28;45551;-63
2021/08/30 07:48:05;;;;;;;;;22.00;20.50;;;;;18.72;72.04;101743.19;4900588;28;45623;-63
2021/08/30 07:50:31;;;;;;;;;23.25;21.50;;;;;18.76;72.12;101741.00;4907665;28;47123;-64
2021/08/30 07:52:56;;;;;;;;;21.00;18.50;;;;;18.82;71.74;101751.81;4905128;28;45576;-62
2021/08/30 07:55:22;;;;;;;;;21.75;19.75;;;;;18.90;71.56;101743.72;4906458;28;45574;-62
2021/08/30 07:57:47;;;;;;;;;19.75;15.00;;;;;19.02;70.94;101748.66;4897630;28;45701;-62
2021/08/30 08:00:13;;;;;;;;;21.25;19.25;;;;;19.16;69.97;101747.00;4893786;28;52235;-63
2021/08/30 08:02:39;;;;;;;;;25.25;19.25;;;;;19.36;70.15;101747.31;4902163;28;45911;-65
2021/08/30 08:05:05;;;;;;;;;19.75;18.00;;;;;19.71;69.45;101752.03;4906307;28;46033;-63
2021/08/30 08:07:31;;;;;;;;;17.50;15.50;;;;;20.47;67.61;101734.75;4903379;28;45595;-63
2021/08/30 08:09:56;;;;;;;;;20.50;18.50;;;;;20.81;66.51;101742.97;4898399;28;47426;-62
2021/08/30 08:12:21;;;;;;;;;17.75;15.75;;;;;20.88;65.69;101748.41;4896411;28;45766;-62
2021/08/30 08:14:47;;;;;;;;;17.75;16.00;;;;;20.86;65.47;101744.25;4894986;28;45484;-62
2021/08/30 08:17:12;;;;;;;;;19.25;16.50;;;;;21.30;65.40;101746.69;4896199;28;45997;-62
2021/08/30 08:19:37;;;;;;;;;23.75;18.00;;;;;21.79;63.99;101753.03;4899050;28;46297;-63
2021/08/30 08:22:03;;;;;;;;;18.75;16.75;;;;;21.98;63.21;101754.97;4898157;28;45550;-62
2021/08/30 08:24:29;;;;;;;;;18.50;16.50;;;;;21.94;62.21;101756.41;4910448;28;56316;-63
2021/08/30 08:26:55;;;;;;;;;18.50;14.75;;;;;21.96;61.91;101751.66;4899096;28;45470;-61
2021/08/30 08:29:21;;;;;;;;;13.75;12.50;;;;;21.97;61.84;101758.69;4894561;28;46083;-62
2021/08/30 08:31:47;;;;;;;;;17.00;13.25;;;;;21.81;60.77;101753.63;4905481;28;45931;-62
2021/08/30 08:34:12;;;;;;;;;16.75;16.75;;;;;21.64;61.49;101769.31;4906447;28;45990;-62
2021/08/30 08:36:39;;;;;;;;;17.75;16.75;;;;;21.57;61.51;101761.19;4902426;28;45600;-62
2021/08/30 08:39:05;;;;;;;;;15.50;15.00;;;;;21.48;61.38;101768.56;4899701;28;47053;-62
2021/08/30 08:41:32;;;;;;;;;16.25;15.00;;;;;21.54;61.95;101764.28;4905469;28;45794;-62
2021/08/30 08:43:58;;;;;;;;;19.75;17.25;;;;;21.77;61.51;101758.59;4901151;28;45822;-62
2021/08/30 08:46:25;;;;;;;;;19.00;13.25;;;;;21.99;60.55;101758.50;4903012;28;45541;-63
2021/08/30 08:48:51;;;;;;;;;14.00;13.00;;;;;22.15;60.62;101762.72;4896114;28;47132;-62
2021/08/30 08:51:16;;;;;;;;;15.00;13.00;;;;;22.24;60.81;101758.84;4898261;28;46050;-63
2021/08/30 08:53:44;;;;;;;;;18.75;16.25;;;;;22.35;59.61;101765.50;4898988;28;45744;-63
2021/08/30 08:56:13;;;;;;;;;16.50;13.50;;;;;22.35;59.16;101769.00;4905508;28;45634;-63
2021/08/30 08:58:40;;;;;;;;;17.50;16.00;;;;;22.42;59.33;101763.66;4904519;28;46614;-63
2021/08/30 09:01:11;;;;;;;;;19.50;16.00;;;;;22.58;58.91;101757.91;4905164;28;45610;-62
2021/08/30 09:03:49;;;;;;;;;16.00;13.50;;;;;22.72;58.77;101761.44;4922168;28;45534;-63
2021/08/30 09:06:25;;;;;;;;;15.00;14.25;;;;;22.75;58.06;101767.25;4986962;28;45907;-64
2021/08/30 09:08:56;;;;;;;;;19.75;15.25;;;;;22.82;58.15;101755.66;4895483;28;47243;-63
2021/08/30 09:11:22;;;;;;;;;15.25;14.00;;;;;22.76;56.97;101760.00;4906929;28;46629;-63
2021/08/30 09:13:49;;;;;;;;;17.00;16.25;;;;;22.59;56.79;101766.81;4903785;28;45510;-63
2021/08/30 09:16:18;;;;;;;;;16.75;14.75;;;;;22.45;57.03;101763.25;4906177;28;45472;-63
2021/08/30 09:18:43;;;;;;;;;14.75;13.50;;;;;22.36;57.58;101762.63;4901044;28;46632;-63
2021/08/30 09:21:14;;;;;;;;;16.75;13.25;;;;;22.26;57.58;101770.25;4891618;28;45532;-64
2021/08/30 09:23:41;;;;;;;;;15.75;13.75;;;;;22.08;57.35;101777.00;4889281;28;45821;-63
2021/08/30 09:26:17;;;;;;;;;16.00;15.00;;;;;22.10;57.86;101788.34;4890188;28;46190;-63
2021/08/30 09:28:52;;;;;;;;;17.75;16.50;;;;;22.53;56.83;101787.31;4897726;28;47155;-63
2021/08/30 09:31:18;;;;;;;;;13.50;12.75;;;;;23.59;56.72;101784.69;4906058;28;45638;-64
2021/08/30 09:33:53;;;;;;;;;12.25;11.50;;;;;24.55;52.50;101772.31;4905518;28;45416;-63
2021/08/30 09:36:21;;;;;;;;;14.50;12.25;;;;;24.47;52.54;101780.69;4893182;28;45530;-64
2021/08/30 09:38:54;;;;;;;;;16.25;13.25;;;;;24.09;52.91;101765.25;4892869;28;46114;-64
2021/08/30 09:41:21;;;;;;;;;13.00;13.00;;;;;23.65;53.64;101777.63;4892038;28;48384;-63
2021/08/30 09:43:57;;;;;;;;;13.50;13.50;;;;;23.21;53.92;101781.81;4896765;28;45552;-64
2021/08/30 09:46:28;;;;;;;;;16.50;13.50;;;;;22.79;54.17;101775.75;4904704;28;45494;-65
2021/08/30 09:48:53;;;;;;;;;9.50;7.25;;;;;22.44;54.83;101780.44;4906057;28;46358;-67
2021/08/30 09:51:24;;;;;;;;;14.50;9.00;;;;;22.15;55.94;101787.75;4894976;28;45529;-67
2021/08/30 09:53:49;;;;;;;;;13.25;10.75;;;;;21.95;56.08;101782.28;4899690;28;45540;-66
2021/08/30 09:56:15;;;;;;;;;11.25;10.75;;;;;21.82;56.95;101776.84;4907193;28;46263;-67
2021/08/30 09:58:46;;;;;;;;;14.50;12.25;;;;;21.73;56.81;101784.22;4903773;28;47065;-67
2021/08/30 10:01:12;;;;;;;;;12.00;11.00;;;;;21.64;56.64;101780.06;4903986;28;45450;-67
2021/08/30 10:03:40;;;;;;;;;16.50;13.75;;;;;21.56;55.88;101770.28;4889237;28;45576;-67
2021/08/30 10:06:07;;;;;;;;;19.50;15.00;;;;;21.43;56.87;101787.13;4887598;28;45359;-66
2021/08/30 10:08:36;;;;;;;;;17.50;13.50;;;;;21.29;57.78;101787.19;4890197;28;46322;-67
2021/08/30 10:11:02;;;;;;;;;15.00;12.75;;;;;21.16;57.92;101788.75;4901909;28;45901;-67
2021/08/30 10:13:28;;;;;;;;;13.75;13.00;;;;;21.11;57.75;101780.44;4907304;28;46137;-68
2021/08/30 10:15:53;;;;;;;;;17.00;13.50;;;;;21.14;58.26;101779.22;4892198;28;45578;-68
2021/08/30 10:18:20;;;;;;;;;14.25;13.00;;;;;21.31;58.31;101771.72;4897305;28;45538;-67
2021/08/30 10:20:50;;;;;;;;;12.50;11.50;;;;;21.52;58.00;101777.06;4901258;28;45420;-67
2021/08/30 10:23:18;;;;;;;;;15.50;13.50;;;;;21.73;57.18;101768.09;4904570;28;46745;-67
2021/08/30 10:25:56;;;;;;;;;10.25;9.50;;;;;21.83;56.94;101770.41;4921110;28;45580;-69
2021/08/30 10:28:34;;;;;;;;;13.75;12.00;;;;;21.90;56.53;101772.13;4898632;28;46348;-65
2021/08/30 10:30:59;;;;;;;;;13.75;12.00;;;;;21.90;56.78;101763.22;4897469;28;46097;-67
2021/08/30 10:33:25;;;;;;;;;15.00;11.50;;;;;21.90;55.53;101764.03;4893891;28;45746;-67
2021/08/30 10:35:51;;;;;;;;;15.00;13.25;;;;;21.86;56.82;101767.34;4896988;28;46497;-67
2021/08/30 10:38:19;;;;;;;;;13.25;11.25;;;;;21.87;56.55;101763.63;4894569;28;46945;-67
2021/08/30 10:40:52;;;;;;;;;14.75;13.00;;;;;21.84;56.73;101772.94;4893669;28;45485;-69
2021/08/30 10:43:20;;;;;;;;;11.50;10.25;;;;;21.85;56.63;101779.97;4891510;28;45560;-68
2021/08/30 10:45:58;;;;;;;;;13.50;12.00;;;;;21.87;56.32;101771.69;4896121;28;45999;-68
2021/08/30 10:48:38;;;;;;;;;12.00;10.25;;;;;21.97;56.18;101779.41;4892174;28;46344;-69
2021/08/30 10:51:20;;;;;;;;;15.75;15.00;;;;;22.12;56.38;101766.63;4894338;28;45754;-70
2021/08/30 10:54:00;;;;;;;;;15.50;13.25;;;;;22.31;56.40;101751.63;4896643;28;46697;-70
2021/08/30 10:56:31;;;;;;;;;12.00;12.00;;;;;22.49;55.73;101768.03;4895646;28;45719;-70
2021/08/30 10:59:03;;;;;;;;;13.75;12.00;;;;;22.51;55.63;101768.66;4890598;28;45558;-70
2021/08/30 11:01:28;;;;;;;;;13.75;12.75;;;;;22.59;54.80;101772.19;4895173;28;45444;-69
2021/08/30 11:03:55;;;;;;;;;12.00;11.50;;;;;22.59;55.00;101772.19;4894095;28;45940;-71
2021/08/30 11:06:21;;;;;;;;;13.50;11.00;;;;;22.58;53.84;101787.53;4889788;28;45634;-69
2021/08/30 11:08:46;;;;;;;;;12.75;12.75;;;;;22.54;54.94;101764.72;4895194;28;46316;-70
2021/08/30 11:11:17;;;;;;;;;14.25;11.00;;;;;22.54;54.30;101773.63;4894003;28;56855;-67
2021/08/30 11:13:55;;;;;;;;;12.75;12.50;;;;;22.54;54.23;101776.31;4890003;28;45568;-68
2021/08/30 11:16:22;;;;;;;;;5.75;4.00;;;;;22.61;53.81;101772.84;4897409;28;45832;-67
2021/08/30 11:18:52;;;;;;;;;15.25;12.00;;;;;22.75;53.89;101777.22;4890737;28;48071;-70
2021/08/30 11:21:30;;;;;;;;;10.00;9.00;;;;;23.09;53.39;101775.38;4910530;28;45595;-70